Terminal Aerodrome Forecast
Issued by NWS Sterling, VA

Current Version | Previous Version | Graphics & Text | Print | Product List | Glossary On
Versions: 1 2 3 4 5 6 7 8 9 10 11 12 13 14 15 16 17 18
458
FTUS41 KLWX 090535
TAFMRB
TAF
KMRB 090535Z 0906/1006 00000KT P6SM OVC100
     FM090900 00000KT P6SM OVC060
     FM091200 00000KT 2SM -SN OVC020
     FM091900 VRB03KT P6SM OVC035
     FM100000 VRB03KT P6SM BKN130=

USA.gov is the U.S. government's official web portal to all federal, state and local government web resources and services.